sensor_id;sensor_type;location;lat;lon;timestamp;temperature;humidity
41318;DHT22;27067;51.554;7.026;2022-08-21T00:01:14;23.80;82.50
41318;DHT22;27067;51.554;7.026;2022-08-21T00:03:40;23.80;82.40
41318;DHT22;27067;51.554;7.026;2022-08-21T00:06:06;23.80;82.50
41318;DHT22;27067;51.554;7.026;2022-08-21T00:08:31;23.80;82.60
41318;DHT22;27067;51.554;7.026;2022-08-21T00:10:57;23.80;82.60
41318;DHT22;27067;51.554;7.026;2022-08-21T00:13:22;23.80;82.60
41318;DHT22;27067;51.554;7.026;2022-08-21T00:15:48;23.80;82.60
41318;DHT22;27067;51.554;7.026;2022-08-21T00:18:14;23.80;82.70
41318;DHT22;27067;51.554;7.026;2022-08-21T00:20:40;23.80;82.70
41318;DHT22;27067;51.554;7.026;2022-08-21T00:23:06;23.80;82.70
41318;DHT22;27067;51.554;7.026;2022-08-21T00:25:32;23.80;82.70
41318;DHT22;27067;51.554;7.026;2022-08-21T00:27:58;23.80;82.70
41318;DHT22;27067;51.554;7.026;2022-08-21T00:30:24;23.80;82.70
41318;DHT22;27067;51.554;7.026;2022-08-21T00:32:51;23.80;82.70
41318;DHT22;27067;51.554;7.026;2022-08-21T00:35:18;23.80;82.70
41318;DHT22;27067;51.554;7.026;2022-08-21T00:37:43;23.80;82.90
41318;DHT22;27067;51.554;7.026;2022-08-21T00:40:11;23.80;83.00
41318;DHT22;27067;51.554;7.026;2022-08-21T00:42:37;23.80;83.00
41318;DHT22;27067;51.554;7.026;2022-08-21T00:45:03;23.80;83.00
41318;DHT22;27067;51.554;7.026;2022-08-21T00:47:28;23.80;83.00
41318;DHT22;27067;51.554;7.026;2022-08-21T00:49:54;23.80;83.00
41318;DHT22;27067;51.554;7.026;2022-08-21T00:52:21;23.80;83.00
41318;DHT22;27067;51.554;7.026;2022-08-21T00:54:47;23.80;83.00
41318;DHT22;27067;51.554;7.026;2022-08-21T00:57:15;23.80;83.00
41318;DHT22;27067;51.554;7.026;2022-08-21T00:59:41;23.80;82.90
41318;DHT22;27067;51.554;7.026;2022-08-21T01:02:08;23.80;82.90
41318;DHT22;27067;51.554;7.026;2022-08-21T01:04:34;23.80;82.90
41318;DHT22;27067;51.554;7.026;2022-08-21T01:07:00;23.80;82.80
41318;DHT22;27067;51.554;7.026;2022-08-21T01:09:25;23.80;82.90
41318;DHT22;27067;51.554;7.026;2022-08-21T01:11:51;23.80;82.90
41318;DHT22;27067;51.554;7.026;2022-08-21T01:14:17;23.80;82.90
41318;DHT22;27067;51.554;7.026;2022-08-21T01:16:45;23.80;82.80
41318;DHT22;27067;51.554;7.026;2022-08-21T01:19:11;23.80;82.80
41318;DHT22;27067;51.554;7.026;2022-08-21T01:21:37;23.80;82.80
41318;DHT22;27067;51.554;7.026;2022-08-21T01:24:03;23.80;82.80
41318;DHT22;27067;51.554;7.026;2022-08-21T01:26:30;23.80;82.70
41318;DHT22;27067;51.554;7.026;2022-08-21T01:29:01;23.80;82.70
41318;DHT22;27067;51.554;7.026;2022-08-21T01:31:27;23.80;82.80
41318;DHT22;27067;51.554;7.026;2022-08-21T01:33:54;23.80;82.70
41318;DHT22;27067;51.554;7.026;2022-08-21T01:36:20;23.80;82.70
41318;DHT22;27067;51.554;7.026;2022-08-21T01:38:45;23.80;82.70
41318;DHT22;27067;51.554;7.026;2022-08-21T01:41:12;23.80;82.60
41318;DHT22;27067;51.554;7.026;2022-08-21T01:43:38;23.80;82.50
41318;DHT22;27067;51.554;7.026;2022-08-21T01:46:04;23.80;82.50
41318;DHT22;27067;51.554;7.026;2022-08-21T01:48:29;23.80;82.50
41318;DHT22;27067;51.554;7.026;2022-08-21T01:50:55;23.80;82.60
41318;DHT22;27067;51.554;7.026;2022-08-21T01:53:20;23.80;82.60
41318;DHT22;27067;51.554;7.026;2022-08-21T01:55:46;23.80;82.70
41318;DHT22;27067;51.554;7.026;2022-08-21T01:58:11;23.80;82.70
41318;DHT22;27067;51.554;7.026;2022-08-21T02:00:37;23.70;82.70
41318;DHT22;27067;51.554;7.026;2022-08-21T02:03:03;23.70;82.80
41318;DHT22;27067;51.554;7.026;2022-08-21T02:05:29;23.70;82.80
41318;DHT22;27067;51.554;7.026;2022-08-21T02:07:55;23.70;82.80
41318;DHT22;27067;51.554;7.026;2022-08-21T02:10:23;23.70;82.80
41318;DHT22;27067;51.554;7.026;2022-08-21T02:12:49;23.70;82.60
41318;DHT22;27067;51.554;7.026;2022-08-21T02:15:14;23.70;82.70
41318;DHT22;27067;51.554;7.026;2022-08-21T02:17:42;23.70;82.70
41318;DHT22;27067;51.554;7.026;2022-08-21T02:20:08;23.70;83.10
41318;DHT22;27067;51.554;7.026;2022-08-21T02:22:34;23.70;82.40
41318;DHT22;27067;51.554;7.026;2022-08-21T02:25:00;23.70;82.40
41318;DHT22;27067;51.554;7.026;2022-08-21T02:27:26;23.70;82.30
41318;DHT22;27067;51.554;7.026;2022-08-21T02:29:51;23.70;82.30
41318;DHT22;27067;51.554;7.026;2022-08-21T02:32:17;23.70;82.40
41318;DHT22;27067;51.554;7.026;2022-08-21T02:34:42;23.70;82.30
41318;DHT22;27067;51.554;7.026;2022-08-21T02:37:08;23.80;82.20
41318;DHT22;27067;51.554;7.026;2022-08-21T02:39:33;23.70;82.10
41318;DHT22;27067;51.554;7.026;2022-08-21T02:41:59;23.70;82.10
41318;DHT22;27067;51.554;7.026;2022-08-21T02:44:25;23.80;82.10
41318;DHT22;27067;51.554;7.026;2022-08-21T02:46:50;23.70;82.00
41318;DHT22;27067;51.554;7.026;2022-08-21T02:49:16;23.70;82.70
41318;DHT22;27067;51.554;7.026;2022-08-21T02:51:41;23.70;82.00
41318;DHT22;27067;51.554;7.026;2022-08-21T02:54:07;23.70;81.90
41318;DHT22;27067;51.554;7.026;2022-08-21T02:56:32;23.70;81.90
41318;DHT22;27067;51.554;7.026;2022-08-21T02:58:58;23.70;82.10
41318;DHT22;27067;51.554;7.026;2022-08-21T03:01:23;23.70;82.10
41318;DHT22;27067;51.554;7.026;2022-08-21T03:03:50;23.70;82.00
41318;DHT22;27067;51.554;7.026;2022-08-21T03:06:15;23.70;82.00
41318;DHT22;27067;51.554;7.026;2022-08-21T03:08:42;23.70;82.10
41318;DHT22;27067;51.554;7.026;2022-08-21T03:11:08;23.70;82.10
41318;DHT22;27067;51.554;7.026;2022-08-21T03:13:34;23.70;82.10
41318;DHT22;27067;51.554;7.026;2022-08-21T03:15:59;23.70;82.10
41318;DHT22;27067;51.554;7.026;2022-08-21T03:18:25;23.70;82.10
41318;DHT22;27067;51.554;7.026;2022-08-21T03:20:50;23.70;81.90
41318;DHT22;27067;51.554;7.026;2022-08-21T03:23:16;23.70;81.90
41318;DHT22;27067;51.554;7.026;2022-08-21T03:25:43;23.70;81.90
41318;DHT22;27067;51.554;7.026;2022-08-21T03:28:10;22.70;81.40
41318;DHT22;27067;51.554;7.026;2022-08-21T03:30:36;23.60;81.70
41318;DHT22;27067;51.554;7.026;2022-08-21T03:33:02;23.60;81.10
41318;DHT22;27067;51.554;7.026;2022-08-21T03:35:27;24.10;80.80
41318;DHT22;27067;51.554;7.026;2022-08-21T03:37:53;23.60;80.30
41318;DHT22;27067;51.554;7.026;2022-08-21T03:40:19;23.50;79.90
41318;DHT22;27067;51.554;7.026;2022-08-21T03:42:45;23.50;79.60
41318;DHT22;27067;51.554;7.026;2022-08-21T03:45:15;23.50;79.30
41318;DHT22;27067;51.554;7.026;2022-08-21T03:50:37;23.50;78.90
41318;DHT22;27067;51.554;7.026;2022-08-21T03:53:03;23.40;78.50
41318;DHT22;27067;51.554;7.026;2022-08-21T03:55:28;23.40;78.40
41318;DHT22;27067;51.554;7.026;2022-08-21T03:57:54;23.30;78.40
41318;DHT22;27067;51.554;7.026;2022-08-21T04:00:21;23.30;78.30
41318;DHT22;27067;51.554;7.026;2022-08-21T04:02:46;24.60;78.80
41318;DHT22;27067;51.554;7.026;2022-08-21T04:05:12;23.30;78.00
41318;DHT22;27067;51.554;7.026;2022-08-21T04:07:38;23.30;77.80
41318;DHT22;27067;51.554;7.026;2022-08-21T04:10:04;23.30;77.70
41318;DHT22;27067;51.554;7.026;2022-08-21T04:12:30;23.30;77.70
41318;DHT22;27067;51.554;7.026;2022-08-21T04:14:56;23.20;77.60
41318;DHT22;27067;51.554;7.026;2022-08-21T04:17:21;23.20;77.40
41318;DHT22;27067;51.554;7.026;2022-08-21T04:19:47;23.20;77.10
41318;DHT22;27067;51.554;7.026;2022-08-21T04:22:12;23.20;77.10
41318;DHT22;27067;51.554;7.026;2022-08-21T04:24:38;23.20;77.10
41318;DHT22;27067;51.554;7.026;2022-08-21T04:27:04;23.20;77.00
41318;DHT22;27067;51.554;7.026;2022-08-21T04:29:29;23.20;76.70
41318;DHT22;27067;51.554;7.026;2022-08-21T04:31:55;23.20;78.20
41318;DHT22;27067;51.554;7.026;2022-08-21T04:34:20;23.10;78.10
41318;DHT22;27067;51.554;7.026;2022-08-21T04:36:46;23.00;78.20
41318;DHT22;27067;51.554;7.026;2022-08-21T04:39:11;22.80;77.90
41318;DHT22;27067;51.554;7.026;2022-08-21T04:41:37;22.70;77.80
41318;DHT22;27067;51.554;7.026;2022-08-21T04:44:03;22.60;77.80
41318;DHT22;27067;51.554;7.026;2022-08-21T04:46:29;22.50;77.80
41318;DHT22;27067;51.554;7.026;2022-08-21T04:48:54;22.40;77.60
41318;DHT22;27067;51.554;7.026;2022-08-21T04:51:31;22.40;77.60
41318;DHT22;27067;51.554;7.026;2022-08-21T04:54:01;22.30;77.40
41318;DHT22;27067;51.554;7.026;2022-08-21T04:56:31;22.40;78.00
41318;DHT22;27067;51.554;7.026;2022-08-21T04:58:58;22.30;77.50
41318;DHT22;27067;51.554;7.026;2022-08-21T05:01:25;22.30;77.40
41318;DHT22;27067;51.554;7.026;2022-08-21T05:03:53;22.30;77.40
41318;DHT22;27067;51.554;7.026;2022-08-21T05:06:20;22.30;77.20
41318;DHT22;27067;51.554;7.026;2022-08-21T05:08:47;22.30;77.10
41318;DHT22;27067;51.554;7.026;2022-08-21T05:11:13;22.20;77.30
41318;DHT22;27067;51.554;7.026;2022-08-21T05:13:39;22.20;77.30
41318;DHT22;27067;51.554;7.026;2022-08-21T05:16:06;22.30;77.30
41318;DHT22;27067;51.554;7.026;2022-08-21T05:18:32;22.20;77.20
41318;DHT22;27067;51.554;7.026;2022-08-21T05:20:57;22.20;77.80
41318;DHT22;27067;51.554;7.026;2022-08-21T05:23:23;22.30;77.60
41318;DHT22;27067;51.554;7.026;2022-08-21T05:25:50;22.20;77.70
41318;DHT22;27067;51.554;7.026;2022-08-21T05:28:15;22.30;77.70
41318;DHT22;27067;51.554;7.026;2022-08-21T05:30:41;22.30;77.80
41318;DHT22;27067;51.554;7.026;2022-08-21T05:33:07;22.30;77.90
41318;DHT22;27067;51.554;7.026;2022-08-21T05:35:33;22.30;78.00
41318;DHT22;27067;51.554;7.026;2022-08-21T05:37:58;22.30;78.50
41318;DHT22;27067;51.554;7.026;2022-08-21T05:40:25;22.30;78.40
41318;DHT22;27067;51.554;7.026;2022-08-21T05:42:51;22.30;78.10
41318;DHT22;27067;51.554;7.026;2022-08-21T05:45:17;22.30;78.40
41318;DHT22;27067;51.554;7.026;2022-08-21T05:47:42;22.40;78.70
41318;DHT22;27067;51.554;7.026;2022-08-21T05:50:08;22.40;78.50
41318;DHT22;27067;51.554;7.026;2022-08-21T05:52:33;22.40;78.60
41318;DHT22;27067;51.554;7.026;2022-08-21T05:54:59;22.40;78.90
41318;DHT22;27067;51.554;7.026;2022-08-21T05:57:24;22.40;78.90
41318;DHT22;27067;51.554;7.026;2022-08-21T05:59:50;22.40;79.90
41318;DHT22;27067;51.554;7.026;2022-08-21T06:02:19;22.60;83.60
41318;DHT22;27067;51.554;7.026;2022-08-21T06:04:45;22.60;85.70
41318;DHT22;27067;51.554;7.026;2022-08-21T06:07:10;22.70;85.70
41318;DHT22;27067;51.554;7.026;2022-08-21T06:09:36;22.70;82.00
41318;DHT22;27067;51.554;7.026;2022-08-21T06:12:04;22.70;81.60
41318;DHT22;27067;51.554;7.026;2022-08-21T06:14:29;22.50;81.40
41318;DHT22;27067;51.554;7.026;2022-08-21T06:17:00;22.50;81.60
41318;DHT22;27067;51.554;7.026;2022-08-21T06:19:26;22.50;82.10
41318;DHT22;27067;51.554;7.026;2022-08-21T06:21:51;22.50;82.20
41318;DHT22;27067;51.554;7.026;2022-08-21T06:24:17;22.40;82.10
41318;DHT22;27067;51.554;7.026;2022-08-21T06:26:42;22.40;82.00
41318;DHT22;27067;51.554;7.026;2022-08-21T06:29:08;22.40;81.90
41318;DHT22;27067;51.554;7.026;2022-08-21T06:31:35;22.40;82.00
41318;DHT22;27067;51.554;7.026;2022-08-21T06:34:01;22.40;82.20
41318;DHT22;27067;51.554;7.026;2022-08-21T06:36:26;22.40;81.80
41318;DHT22;27067;51.554;7.026;2022-08-21T06:38:52;22.40;81.60
41318;DHT22;27067;51.554;7.026;2022-08-21T06:41:18;22.40;81.20
41318;DHT22;27067;51.554;7.026;2022-08-21T06:43:44;22.40;80.90
41318;DHT22;27067;51.554;7.026;2022-08-21T06:46:09;22.40;80.80
41318;DHT22;27067;51.554;7.026;2022-08-21T06:48:35;22.40;80.60
41318;DHT22;27067;51.554;7.026;2022-08-21T06:51:01;22.40;80.60
41318;DHT22;27067;51.554;7.026;2022-08-21T06:53:26;22.30;80.50
41318;DHT22;27067;51.554;7.026;2022-08-21T06:55:52;22.30;80.30
41318;DHT22;27067;51.554;7.026;2022-08-21T06:58:18;22.30;80.30
41318;DHT22;27067;51.554;7.026;2022-08-21T07:00:45;22.30;80.40
41318;DHT22;27067;51.554;7.026;2022-08-21T07:03:22;22.30;80.10
41318;DHT22;27067;51.554;7.026;2022-08-21T07:05:47;22.30;80.40
41318;DHT22;27067;51.554;7.026;2022-08-21T07:08:13;22.30;79.90
41318;DHT22;27067;51.554;7.026;2022-08-21T07:10:38;22.30;79.90
41318;DHT22;27067;51.554;7.026;2022-08-21T07:13:04;22.30;79.90
41318;DHT22;27067;51.554;7.026;2022-08-21T07:15:30;22.20;80.20
41318;DHT22;27067;51.554;7.026;2022-08-21T07:17:56;22.30;80.60
41318;DHT22;27067;51.554;7.026;2022-08-21T07:20:22;22.30;80.30
41318;DHT22;27067;51.554;7.026;2022-08-21T07:22:47;22.20;80.30
41318;DHT22;27067;51.554;7.026;2022-08-21T07:25:13;22.30;80.30
41318;DHT22;27067;51.554;7.026;2022-08-21T07:27:39;22.30;80.10
41318;DHT22;27067;51.554;7.026;2022-08-21T07:30:04;22.30;80.10
41318;DHT22;27067;51.554;7.026;2022-08-21T07:32:30;22.30;80.50
41318;DHT22;27067;51.554;7.026;2022-08-21T07:34:55;22.30;80.70
41318;DHT22;27067;51.554;7.026;2022-08-21T07:37:21;22.30;80.50
41318;DHT22;27067;51.554;7.026;2022-08-21T07:39:47;22.30;80.30
41318;DHT22;27067;51.554;7.026;2022-08-21T07:42:14;22.30;80.40
41318;DHT22;27067;51.554;7.026;2022-08-21T07:44:40;22.40;80.70
41318;DHT22;27067;51.554;7.026;2022-08-21T07:47:05;22.40;80.70
41318;DHT22;27067;51.554;7.026;2022-08-21T07:49:31;22.40;80.40
41318;DHT22;27067;51.554;7.026;2022-08-21T07:51:56;22.50;80.30
41318;DHT22;27067;51.554;7.026;2022-08-21T07:54:22;21.20;79.30
41318;DHT22;27067;51.554;7.026;2022-08-21T07:56:47;22.50;79.90
41318;DHT22;27067;51.554;7.026;2022-08-21T07:59:13;22.60;79.80
41318;DHT22;27067;51.554;7.026;2022-08-21T08:01:38;22.60;79.80
41318;DHT22;27067;51.554;7.026;2022-08-21T08:04:04;22.60;79.80
41318;DHT22;27067;51.554;7.026;2022-08-21T08:06:29;22.60;79.80
41318;DHT22;27067;51.554;7.026;2022-08-21T08:08:55;22.60;79.90
41318;DHT22;27067;51.554;7.026;2022-08-21T08:11:21;22.60;79.60
41318;DHT22;27067;51.554;7.026;2022-08-21T08:13:48;22.60;79.40
41318;DHT22;27067;51.554;7.026;2022-08-21T08:16:14;22.70;79.10
41318;DHT22;27067;51.554;7.026;2022-08-21T08:18:40;22.70;79.00
41318;DHT22;27067;51.554;7.026;2022-08-21T08:21:07;22.70;78.90
41318;DHT22;27067;51.554;7.026;2022-08-21T08:23:33;22.80;78.90
41318;DHT22;27067;51.554;7.026;2022-08-21T08:25:59;22.80;78.90
41318;DHT22;27067;51.554;7.026;2022-08-21T08:28:24;22.80;78.70
41318;DHT22;27067;51.554;7.026;2022-08-21T08:30:50;22.90;78.60
41318;DHT22;27067;51.554;7.026;2022-08-21T08:33:17;22.90;78.50
41318;DHT22;27067;51.554;7.026;2022-08-21T08:35:44;22.90;78.40
41318;DHT22;27067;51.554;7.026;2022-08-21T08:38:10;22.90;78.30
41318;DHT22;27067;51.554;7.026;2022-08-21T08:40:39;23.00;78.40
41318;DHT22;27067;51.554;7.026;2022-08-21T08:43:06;23.00;78.40
41318;DHT22;27067;51.554;7.026;2022-08-21T08:45:34;23.00;78.40
41318;DHT22;27067;51.554;7.026;2022-08-21T08:48:03;23.00;79.10
41318;DHT22;27067;51.554;7.026;2022-08-21T08:53:17;23.00;78.50
41318;DHT22;27067;51.554;7.026;2022-08-21T08:55:45;23.00;78.60
41318;DHT22;27067;51.554;7.026;2022-08-21T08:58:16;23.00;78.80
41318;DHT22;27067;51.554;7.026;2022-08-21T09:00:44;23.00;79.30
41318;DHT22;27067;51.554;7.026;2022-08-21T09:03:12;23.00;79.30
41318;DHT22;27067;51.554;7.026;2022-08-21T09:13:50;23.00;79.60
41318;DHT22;27067;51.554;7.026;2022-08-21T09:21:38;23.00;79.60
41318;DHT22;27067;51.554;7.026;2022-08-21T09:26:52;23.10;79.60
41318;DHT22;27067;51.554;7.026;2022-08-21T09:29:20;23.00;79.70
41318;DHT22;27067;51.554;7.026;2022-08-21T09:31:47;23.00;79.70
41318;DHT22;27067;51.554;7.026;2022-08-21T09:34:23;23.10;79.70
41318;DHT22;27067;51.554;7.026;2022-08-21T09:36:49;23.10;79.70
41318;DHT22;27067;51.554;7.026;2022-08-21T09:39:23;23.00;79.70
41318;DHT22;27067;51.554;7.026;2022-08-21T09:41:55;23.00;79.70
41318;DHT22;27067;51.554;7.026;2022-08-21T09:44:25;23.10;79.80
41318;DHT22;27067;51.554;7.026;2022-08-21T09:46:51;23.00;79.70
41318;DHT22;27067;51.554;7.026;2022-08-21T09:49:26;23.10;79.80
41318;DHT22;27067;51.554;7.026;2022-08-21T09:51:52;23.10;79.80
41318;DHT22;27067;51.554;7.026;2022-08-21T09:54:19;23.10;79.90
41318;DHT22;27067;51.554;7.026;2022-08-21T09:59:39;23.10;79.90
41318;DHT22;27067;51.554;7.026;2022-08-21T10:04:43;23.10;80.00
41318;DHT22;27067;51.554;7.026;2022-08-21T10:07:14;23.10;80.00
41318;DHT22;27067;51.554;7.026;2022-08-21T10:09:40;23.10;79.90
41318;DHT22;27067;51.554;7.026;2022-08-21T10:12:22;23.10;80.00
41318;DHT22;27067;51.554;7.026;2022-08-21T10:17:17;23.10;80.00
41318;DHT22;27067;51.554;7.026;2022-08-21T10:22:27;23.10;80.20
41318;DHT22;27067;51.554;7.026;2022-08-21T10:29:53;23.10;80.20
41318;DHT22;27067;51.554;7.026;2022-08-21T10:47:50;23.10;80.30
41318;DHT22;27067;51.554;7.026;2022-08-21T10:50:22;23.10;80.30
41318;DHT22;27067;51.554;7.026;2022-08-21T10:55:22;23.10;80.40
41318;DHT22;27067;51.554;7.026;2022-08-21T10:58:33;23.10;80.30
41318;DHT22;27067;51.554;7.026;2022-08-21T11:00:48;23.10;80.40
41318;DHT22;27067;51.554;7.026;2022-08-21T11:05:54;23.20;80.40
41318;DHT22;27067;51.554;7.026;2022-08-21T11:08:27;23.20;80.40
41318;DHT22;27067;51.554;7.026;2022-08-21T11:13:40;23.10;80.40
41318;DHT22;27067;51.554;7.026;2022-08-21T11:16:21;23.10;80.50
41318;DHT22;27067;51.554;7.026;2022-08-21T11:21:32;23.20;80.60
41318;DHT22;27067;51.554;7.026;2022-08-21T11:26:56;23.10;80.60
41318;DHT22;27067;51.554;7.026;2022-08-21T11:29:25;23.20;80.70
41318;DHT22;27067;51.554;7.026;2022-08-21T11:34:54;23.20;80.70
41318;DHT22;27067;51.554;7.026;2022-08-21T11:40:09;23.20;80.80
41318;DHT22;27067;51.554;7.026;2022-08-21T11:50:33;23.20;80.90
41318;DHT22;27067;51.554;7.026;2022-08-21T11:53:04;23.20;80.90
41318;DHT22;27067;51.554;7.026;2022-08-21T11:55:36;23.20;80.90
41318;DHT22;27067;51.554;7.026;2022-08-21T11:58:05;23.20;81.00
41318;DHT22;27067;51.554;7.026;2022-08-21T12:00:33;23.20;81.00
41318;DHT22;27067;51.554;7.026;2022-08-21T12:03:07;23.20;81.00
41318;DHT22;27067;51.554;7.026;2022-08-21T12:05:35;23.20;81.00
41318;DHT22;27067;51.554;7.026;2022-08-21T12:08:14;23.20;81.70
41318;DHT22;27067;51.554;7.026;2022-08-21T12:11:08;23.20;81.10
41318;DHT22;27067;51.554;7.026;2022-08-21T12:13:36;23.20;81.10
41318;DHT22;27067;51.554;7.026;2022-08-21T12:16:08;23.20;81.10
41318;DHT22;27067;51.554;7.026;2022-08-21T12:18:34;23.20;81.20
41318;DHT22;27067;51.554;7.026;2022-08-21T12:23:30;23.20;81.30
41318;DHT22;27067;51.554;7.026;2022-08-21T12:26:47;23.20;81.30
41318;DHT22;27067;51.554;7.026;2022-08-21T12:28:45;23.20;81.40
41318;DHT22;27067;51.554;7.026;2022-08-21T12:31:18;23.20;81.40
41318;DHT22;27067;51.554;7.026;2022-08-21T12:33:47;23.20;81.40
41318;DHT22;27067;51.554;7.026;2022-08-21T12:36:15;23.20;81.40
41318;DHT22;27067;51.554;7.026;2022-08-21T12:39:03;23.20;81.50
41318;DHT22;27067;51.554;7.026;2022-08-21T12:41:32;23.20;81.50
41318;DHT22;27067;51.554;7.026;2022-08-21T12:44:00;23.20;81.50
41318;DHT22;27067;51.554;7.026;2022-08-21T12:46:30;23.20;81.50
41318;DHT22;27067;51.554;7.026;2022-08-21T12:48:58;23.20;81.50
41318;DHT22;27067;51.554;7.026;2022-08-21T12:51:33;23.20;81.60
41318;DHT22;27067;51.554;7.026;2022-08-21T12:53:59;23.20;81.60
41318;DHT22;27067;51.554;7.026;2022-08-21T12:56:26;23.20;81.70
41318;DHT22;27067;51.554;7.026;2022-08-21T13:03:52;23.20;81.70
41318;DHT22;27067;51.554;7.026;2022-08-21T13:06:19;23.20;81.70
41318;DHT22;27067;51.554;7.026;2022-08-21T13:08:45;23.30;81.80
41318;DHT22;27067;51.554;7.026;2022-08-21T13:11:12;23.20;81.70
41318;DHT22;27067;51.554;7.026;2022-08-21T13:13:39;23.30;81.80
41318;DHT22;27067;51.554;7.026;2022-08-21T13:16:05;23.30;81.80
41318;DHT22;27067;51.554;7.026;2022-08-21T13:18:34;23.30;81.90
41318;DHT22;27067;51.554;7.026;2022-08-21T13:21:09;23.30;81.90
41318;DHT22;27067;51.554;7.026;2022-08-21T13:23:36;23.30;81.90
41318;DHT22;27067;51.554;7.026;2022-08-21T13:26:11;23.30;81.90
41318;DHT22;27067;51.554;7.026;2022-08-21T13:28:36;23.30;81.90
41318;DHT22;27067;51.554;7.026;2022-08-21T13:31:05;23.30;81.90
41318;DHT22;27067;51.554;7.026;2022-08-21T13:33:31;23.30;81.90
41318;DHT22;27067;51.554;7.026;2022-08-21T13:38:26;23.30;81.90
41318;DHT22;27067;51.554;7.026;2022-08-21T13:41:01;23.30;81.70
41318;DHT22;27067;51.554;7.026;2022-08-21T13:43:31;23.30;81.70
41318;DHT22;27067;51.554;7.026;2022-08-21T13:45:57;23.30;81.60
41318;DHT22;27067;51.554;7.026;2022-08-21T13:48:24;23.30;81.60
41318;DHT22;27067;51.554;7.026;2022-08-21T13:50:50;23.30;81.60
41318;DHT22;27067;51.554;7.026;2022-08-21T13:55:54;23.30;81.70
41318;DHT22;27067;51.554;7.026;2022-08-21T13:58:27;23.30;81.70
41318;DHT22;27067;51.554;7.026;2022-08-21T14:00:53;23.30;81.60
41318;DHT22;27067;51.554;7.026;2022-08-21T14:03:29;23.30;81.60
41318;DHT22;27067;51.554;7.026;2022-08-21T14:05:55;23.30;81.60
41318;DHT22;27067;51.554;7.026;2022-08-21T14:08:46;23.30;81.70
41318;DHT22;27067;51.554;7.026;2022-08-21T14:11:10;23.30;81.70
41318;DHT22;27067;51.554;7.026;2022-08-21T14:13:43;23.30;81.70
41318;DHT22;27067;51.554;7.026;2022-08-21T14:16:11;23.30;81.70
41318;DHT22;27067;51.554;7.026;2022-08-21T14:18:47;23.30;81.70
41318;DHT22;27067;51.554;7.026;2022-08-21T14:21:13;23.30;81.70
41318;DHT22;27067;51.554;7.026;2022-08-21T14:23:38;23.30;81.70
41318;DHT22;27067;51.554;7.026;2022-08-21T14:26:04;23.30;81.70
41318;DHT22;27067;51.554;7.026;2022-08-21T14:28:32;23.30;81.80
41318;DHT22;27067;51.554;7.026;2022-08-21T14:30:58;23.30;81.70
41318;DHT22;27067;51.554;7.026;2022-08-21T14:33:35;23.30;81.80
41318;DHT22;27067;51.554;7.026;2022-08-21T14:36:01;23.30;81.80
41318;DHT22;27067;51.554;7.026;2022-08-21T14:38:27;23.30;81.80
41318;DHT22;27067;51.554;7.026;2022-08-21T14:40:54;23.30;81.80
41318;DHT22;27067;51.554;7.026;2022-08-21T14:43:20;23.30;81.80
41318;DHT22;27067;51.554;7.026;2022-08-21T14:45:46;23.30;81.80
41318;DHT22;27067;51.554;7.026;2022-08-21T14:48:12;23.30;81.80
41318;DHT22;27067;51.554;7.026;2022-08-21T14:50:37;23.30;81.80
41318;DHT22;27067;51.554;7.026;2022-08-21T14:53:03;23.30;81.80
41318;DHT22;27067;51.554;7.026;2022-08-21T14:55:29;23.30;81.80
41318;DHT22;27067;51.554;7.026;2022-08-21T14:57:55;23.30;81.70
41318;DHT22;27067;51.554;7.026;2022-08-21T15:00:22;23.30;81.70
41318;DHT22;27067;51.554;7.026;2022-08-21T15:02:49;23.30;81.70
41318;DHT22;27067;51.554;7.026;2022-08-21T15:05:14;23.40;81.70
41318;DHT22;27067;51.554;7.026;2022-08-21T15:07:40;23.40;81.70
41318;DHT22;27067;51.554;7.026;2022-08-21T15:10:06;23.40;81.70
41318;DHT22;27067;51.554;7.026;2022-08-21T15:12:32;23.40;81.70
41318;DHT22;27067;51.554;7.026;2022-08-21T15:14:58;23.40;81.70
41318;DHT22;27067;51.554;7.026;2022-08-21T15:17:23;23.40;81.80
41318;DHT22;27067;51.554;7.026;2022-08-21T15:19:49;23.40;81.80
41318;DHT22;27067;51.554;7.026;2022-08-21T15:22:15;23.40;81.80
41318;DHT22;27067;51.554;7.026;2022-08-21T15:24:40;23.40;81.80
41318;DHT22;27067;51.554;7.026;2022-08-21T15:27:06;23.40;81.80
41318;DHT22;27067;51.554;7.026;2022-08-21T15:29:32;23.40;81.70
41318;DHT22;27067;51.554;7.026;2022-08-21T15:32:03;23.40;81.70
41318;DHT22;27067;51.554;7.026;2022-08-21T15:34:39;23.40;81.70
41318;DHT22;27067;51.554;7.026;2022-08-21T15:37:05;23.40;81.70
41318;DHT22;27067;51.554;7.026;2022-08-21T15:39:34;23.40;81.70
41318;DHT22;27067;51.554;7.026;2022-08-21T15:41:59;23.40;81.70
41318;DHT22;27067;51.554;7.026;2022-08-21T15:44:25;23.40;81.60
41318;DHT22;27067;51.554;7.026;2022-08-21T15:46:52;23.40;81.60
41318;DHT22;27067;51.554;7.026;2022-08-21T15:49:18;23.50;81.70
41318;DHT22;27067;51.554;7.026;2022-08-21T15:51:43;23.40;81.70
41318;DHT22;27067;51.554;7.026;2022-08-21T15:54:09;23.40;81.70
41318;DHT22;27067;51.554;7.026;2022-08-21T15:56:36;23.40;81.60
41318;DHT22;27067;51.554;7.026;2022-08-21T15:59:08;23.40;81.80
41318;DHT22;27067;51.554;7.026;2022-08-21T16:01:37;23.50;81.60
41318;DHT22;27067;51.554;7.026;2022-08-21T16:04:03;23.40;81.60
41318;DHT22;27067;51.554;7.026;2022-08-21T16:06:29;23.40;81.50
41318;DHT22;27067;51.554;7.026;2022-08-21T16:08:55;23.40;81.50
41318;DHT22;27067;51.554;7.026;2022-08-21T16:11:20;23.50;81.50
41318;DHT22;27067;51.554;7.026;2022-08-21T16:13:46;23.40;81.40
41318;DHT22;27067;51.554;7.026;2022-08-21T16:16:15;23.50;81.40
41318;DHT22;27067;51.554;7.026;2022-08-21T16:18:40;23.50;81.30
41318;DHT22;27067;51.554;7.026;2022-08-21T16:21:06;23.50;81.30
41318;DHT22;27067;51.554;7.026;2022-08-21T16:23:32;23.50;81.20
41318;DHT22;27067;51.554;7.026;2022-08-21T16:26:00;23.50;81.10
41318;DHT22;27067;51.554;7.026;2022-08-21T16:28:25;23.50;81.00
41318;DHT22;27067;51.554;7.026;2022-08-21T16:30:51;23.50;81.00
41318;DHT22;27067;51.554;7.026;2022-08-21T16:33:21;23.50;80.90
41318;DHT22;27067;51.554;7.026;2022-08-21T16:35:47;23.50;81.00
41318;DHT22;27067;51.554;7.026;2022-08-21T16:38:13;23.50;80.90
41318;DHT22;27067;51.554;7.026;2022-08-21T16:40:38;23.50;81.00
41318;DHT22;27067;51.554;7.026;2022-08-21T16:43:04;23.50;80.80
41318;DHT22;27067;51.554;7.026;2022-08-21T16:45:29;23.50;80.80
41318;DHT22;27067;51.554;7.026;2022-08-21T16:47:55;23.50;80.90
41318;DHT22;27067;51.554;7.026;2022-08-21T16:50:22;23.50;80.90
41318;DHT22;27067;51.554;7.026;2022-08-21T16:52:48;23.50;80.80
41318;DHT22;27067;51.554;7.026;2022-08-21T16:55:14;23.30;80.70
41318;DHT22;27067;51.554;7.026;2022-08-21T16:57:39;23.50;80.80
41318;DHT22;27067;51.554;7.026;2022-08-21T17:00:06;23.50;80.80
41318;DHT22;27067;51.554;7.026;2022-08-21T17:02:39;23.50;80.80